Time;durP1;ratioP1;P1;durP2;ratioP2;P2;SDS_P1;SDS_P2;PMS_P1;PMS_P2;Temp;Humidity;BMP_temperature;BMP_pressure;BME280_temperature;BME280_humidity;BME280_pressure;Samples;Min_cycle;Max_cycle;Signal;HPM_P1;HPM_P2
2022/08/13 00:01:40;;;;;;;2.90;1.30;;;19.60;57.60;;;18.91;44.79;97344.97;5069850;28;20436;-73
2022/08/13 00:04:09;;;;;;;4.30;1.23;;;19.50;58.00;;;18.80;45.04;97348.97;5069387;28;20734;-73
2022/08/13 00:09:06;;;;;;;2.27;1.43;;;19.50;58.20;;;18.80;44.89;97339.03;5069769;28;20411;-73
2022/08/13 00:14:16;;;;;;;4.03;1.40;;;19.40;58.20;;;18.77;45.01;97333.50;5069422;28;20474;-73
2022/08/13 00:16:44;;;;;;;3.78;1.25;;;19.40;58.30;;;18.78;45.17;97335.88;5069574;28;20395;-73
2022/08/13 00:19:10;;;;;;;2.57;1.40;;;19.50;58.20;;;18.76;45.04;97331.91;5069758;28;20429;-73
2022/08/13 00:21:36;;;;;;;2.28;1.40;;;19.40;58.20;;;18.74;45.34;97334.88;5069703;28;20419;-73
2022/08/13 00:24:02;;;;;;;2.92;1.60;;;19.40;58.60;;;18.73;45.67;97330.63;5071261;28;20880;-73
2022/08/13 00:26:31;;;;;;;3.83;1.50;;;19.40;58.70;;;18.70;45.37;97328.56;5073063;28;20424;-73
2022/08/13 00:28:58;;;;;;;3.78;1.50;;;19.40;58.70;;;18.64;45.61;97329.78;5073095;28;20408;-73
2022/08/13 00:31:24;;;;;;;1.92;1.38;;;19.20;58.80;;;18.50;45.80;97329.00;5073187;28;20908;-73
2022/08/13 00:33:51;;;;;;;2.23;1.37;;;19.20;59.00;;;18.44;46.05;97324.84;5072585;28;20407;-73
2022/08/13 00:36:18;;;;;;;2.85;1.48;;;19.10;59.20;;;18.39;46.38;97316.94;5072956;28;20541;-73
2022/08/13 00:38:45;;;;;;;3.25;1.90;;;19.10;59.30;;;18.42;46.52;97314.41;5072879;28;20553;-73
2022/08/13 00:41:37;;;;;;;3.30;1.42;;;19.00;59.60;;;18.33;46.79;97320.81;5072996;28;20758;-73
2022/08/13 00:43:59;;;;;;;2.35;1.60;;;19.00;59.80;;;18.29;46.94;97309.09;5072212;28;20557;-73
2022/08/13 00:46:25;;;;;;;2.60;1.30;;;18.90;60.00;;;18.19;47.26;97308.22;5072786;28;20483;-73
2022/08/13 00:48:54;;;;;;;3.53;1.70;;;18.90;60.10;;;18.17;47.37;97304.28;5072700;28;20423;-73
2022/08/13 00:51:21;;;;;;;1.33;1.23;;;18.90;60.40;;;18.13;47.68;97304.09;5072690;28;20400;-73
2022/08/13 00:53:48;;;;;;;2.17;1.30;;;18.80;60.70;;;18.05;47.91;97298.63;5072190;28;20428;-73
2022/08/13 00:56:15;;;;;;;3.50;1.27;;;18.70;60.80;;;18.02;47.68;97310.78;5072563;28;20908;-73
2022/08/13 00:58:42;;;;;;;2.35;1.55;;;18.70;60.80;;;18.11;47.74;97305.50;5072714;28;20435;-73
2022/08/13 01:01:09;;;;;;;1.42;1.30;;;18.70;60.90;;;18.04;48.00;97300.53;5072819;28;20908;-73
2022/08/13 01:03:37;;;;;;;3.63;1.77;;;18.70;61.10;;;17.95;48.33;97299.66;5054071;28;20550;-73
2022/08/13 01:06:08;;;;;;;2.10;1.50;;;18.60;61.40;;;17.92;48.27;97300.25;5072535;28;20423;-73
2022/08/13 01:08:36;;;;;;;2.30;1.30;;;18.60;61.60;;;17.89;48.32;97303.56;5071132;28;20443;-73
2022/08/13 01:11:08;;;;;;;1.80;1.40;;;18.60;61.60;;;17.89;48.52;97300.88;5072351;28;20402;-72
2022/08/13 01:13:37;;;;;;;4.32;1.90;;;18.60;61.60;;;17.96;49.08;97300.47;5071874;28;20396;-73
2022/08/13 01:16:07;;;;;;;2.00;1.77;;;18.60;61.80;;;17.93;48.72;97301.06;5072362;28;20457;-73
2022/08/13 01:18:36;;;;;;;3.03;1.42;;;18.60;61.90;;;17.87;48.67;97296.91;5101213;22;20903;-72
2022/08/13 01:21:10;;;;;;;2.33;1.45;;;18.60;62.10;;;17.87;49.02;97300.38;5092440;28;20390;-72
2022/08/13 01:23:39;;;;;;;1.88;1.38;;;18.60;62.20;;;17.85;48.91;97301.75;5092089;28;20885;-72
2022/08/13 01:26:05;;;;;;;5.17;1.80;;;18.60;62.30;;;17.86;49.00;97309.50;5092464;28;20397;-72
2022/08/13 01:28:31;;;;;;;2.95;1.63;;;18.50;62.40;;;17.83;49.03;97301.25;5092120;28;20776;-72
2022/08/13 01:31:05;;;;;;;3.83;1.67;;;18.50;62.50;;;17.77;49.31;97298.69;5108002;28;20430;-72
2022/08/13 01:33:35;;;;;;;2.92;1.60;;;18.50;62.80;;;17.71;49.37;97297.22;5091490;28;20398;-72
2022/08/13 01:36:04;;;;;;;3.20;1.80;;;18.40;62.80;;;17.74;49.70;97304.63;5092120;28;20398;-71
2022/08/13 01:38:30;;;;;;;3.88;2.00;;;18.30;63.20;;;17.65;49.83;97308.31;5091944;28;20452;-72
2022/08/13 01:40:58;;;;;;;5.53;1.70;;;18.30;63.50;;;17.58;50.01;97307.91;5092047;28;20476;-72
2022/08/13 01:43:28;;;;;;;3.95;1.75;;;18.30;63.60;;;17.60;50.26;97305.69;5091557;28;20417;-72
2022/08/13 01:45:55;;;;;;;3.20;1.70;;;18.30;63.60;;;17.59;50.02;97298.78;5092000;28;20421;-72
2022/08/13 01:51:08;;;;;;;3.85;1.55;;;18.30;63.80;;;17.52;50.26;97301.84;5091812;28;20801;-71
2022/08/13 01:53:35;;;;;;;3.08;1.60;;;18.20;63.90;;;17.48;50.21;97297.38;5091269;28;20879;-72
2022/08/13 01:56:04;;;;;;;3.03;2.00;;;18.20;63.90;;;17.50;50.37;97303.25;5091718;28;20787;-72
2022/08/13 01:58:31;;;;;;;3.33;1.77;;;18.20;64.00;;;17.52;50.15;97293.00;5091525;28;20406;-72
2022/08/13 02:01:01;;;;;;;2.63;1.90;;;18.20;64.00;;;17.50;50.54;97300.56;5091560;28;20895;-72
2022/08/13 02:03:27;;;;;;;3.28;1.65;;;18.20;64.10;;;17.49;50.49;97305.13;5091138;28;21027;-73
2022/08/13 02:05:56;;;;;;;3.13;1.70;;;18.20;64.00;;;17.50;50.83;97300.56;5091541;28;20421;-73
2022/08/13 02:08:24;;;;;;;2.53;1.90;;;18.20;64.30;;;17.47;50.77;97295.78;5091352;28;20916;-73
2022/08/13 02:10:53;;;;;;;4.07;1.75;;;18.20;64.40;;;17.45;50.93;97292.63;5091529;28;20393;-72
2022/08/13 02:13:23;;;;;;;1.50;1.40;;;18.20;64.60;;;17.38;50.94;97301.84;5090794;28;20891;-73
2022/08/13 02:15:49;;;;;;;2.40;1.75;;;18.10;64.60;;;17.35;50.91;97294.41;5091228;28;20394;-72
2022/08/13 02:18:19;;;;;;;2.03;1.50;;;18.10;64.60;;;17.28;51.07;97291.34;5091052;28;20482;-73
2022/08/13 02:20:46;;;;;;;1.83;1.60;;;18.10;64.80;;;17.29;51.46;97297.50;5091254;28;20402;-72
2022/08/13 02:23:19;;;;;;;1.90;1.52;;;17.90;65.10;;;17.20;51.73;97296.59;5090922;28;20390;-72
2022/08/13 02:25:46;;;;;;;3.33;1.65;;;17.90;65.50;;;17.16;51.92;97298.25;5091234;28;20390;-73
2022/08/13 02:28:14;;;;;;;2.95;1.80;;;17.90;65.80;;;17.12;52.08;97297.25;5091094;28;20390;-73
2022/08/13 02:30:42;;;;;;;2.45;1.70;;;17.80;66.10;;;17.09;52.43;97292.47;5091264;28;20410;-73
2022/08/13 02:33:08;;;;;;;2.97;1.55;;;17.80;66.30;;;17.01;52.54;97291.28;5090767;28;20475;-73
2022/08/13 02:35:37;;;;;;;3.20;1.30;;;17.70;66.50;;;17.01;52.59;97296.63;5090941;28;20505;-72
2022/08/13 02:38:04;;;;;;;3.60;1.60;;;17.70;66.50;;;16.99;52.51;97293.44;5090930;28;20420;-72
2022/08/13 02:43:16;;;;;;;2.15;1.50;;;17.70;66.60;;;16.99;52.72;97306.81;5090521;28;20405;-72
2022/08/13 02:45:46;;;;;;;3.88;1.63;;;17.70;66.60;;;16.99;53.17;97301.47;5090220;28;20401;-72
2022/08/13 02:48:13;;;;;;;3.35;1.55;;;17.70;66.90;;;16.93;52.96;97308.78;5090754;28;20422;-71
2022/08/13 02:50:45;;;;;;;2.97;1.50;;;17.70;67.10;;;16.93;53.20;97305.31;5090808;28;20406;-72
2022/08/13 02:53:19;;;;;;;1.88;1.50;;;17.60;67.10;;;16.90;53.40;97305.94;5090483;28;20417;-72
2022/08/13 02:55:47;;;;;;;2.85;1.60;;;17.60;67.40;;;16.84;53.45;97296.41;5090691;28;20398;-72
2022/08/13 02:58:13;;;;;;;2.70;1.80;;;17.60;67.50;;;16.86;53.63;97299.56;5090530;28;20501;-73
2022/08/13 03:00:41;;;;;;;3.00;1.70;;;17.50;68.00;;;16.77;54.14;97304.78;5090630;28;20394;-72
2022/08/13 03:03:08;;;;;;;2.67;1.55;;;17.40;68.30;;;16.64;54.68;97303.66;5090339;28;20394;-73
2022/08/13 03:05:35;;;;;;;2.55;1.70;;;17.30;68.70;;;16.56;54.67;97300.81;5090520;28;20725;-73
2022/08/13 03:08:03;;;;;;;2.80;1.67;;;17.30;69.00;;;16.55;54.77;97307.25;5090522;28;20405;-72
2022/08/13 03:10:29;;;;;;;2.42;1.60;;;17.30;69.00;;;16.50;54.80;97305.47;5090660;28;20426;-72
2022/08/13 03:13:01;;;;;;;2.83;1.80;;;17.30;69.10;;;16.52;55.03;97313.19;5090140;28;20398;-72
2022/08/13 03:15:29;;;;;;;1.77;1.67;;;17.30;69.30;;;16.56;55.22;97312.31;5090409;28;20394;-72
2022/08/13 03:17:55;;;;;;;3.22;1.55;;;17.30;69.40;;;16.53;55.29;97315.59;5090233;28;21164;-72
2022/08/13 03:20:23;;;;;;;2.40;1.80;;;17.20;69.60;;;16.46;55.38;97312.47;5090507;28;20459;-72
2022/08/13 03:22:51;;;;;;;3.87;1.60;;;17.10;69.80;;;16.42;55.53;97314.13;5090287;28;20485;-73
2022/08/13 03:25:19;;;;;;;3.10;1.80;;;17.10;70.10;;;16.38;55.88;97315.81;5090331;28;20447;-72
2022/08/13 03:27:45;;;;;;;3.60;1.60;;;17.00;70.40;;;16.29;56.03;97314.06;5090409;28;20762;-72
2022/08/13 03:30:14;;;;;;;2.05;1.67;;;17.00;70.60;;;16.27;55.91;97315.16;5090449;28;20394;-72
2022/08/13 03:32:41;;;;;;;2.67;1.70;;;17.00;70.60;;;16.33;55.95;97310.53;5090053;28;20755;-72
2022/08/13 03:35:10;;;;;;;2.20;1.60;;;17.10;70.50;;;16.34;56.21;97316.66;5090200;28;20390;-72
2022/08/13 03:37:39;;;;;;;2.42;1.60;;;17.10;71.20;;;16.30;56.38;97319.13;5090219;28;20409;-72
2022/08/13 03:40:06;;;;;;;3.03;1.55;;;17.00;70.80;;;16.27;56.33;97315.16;5090300;28;20905;-72
2022/08/13 03:42:33;;;;;;;2.20;1.60;;;17.00;70.90;;;16.26;56.26;97307.41;5090163;28;20409;-73
2022/08/13 03:45:00;;;;;;;1.88;1.60;;;17.00;70.90;;;16.25;56.34;97314.63;5089789;28;20459;-72
2022/08/13 03:47:26;;;;;;;3.38;1.50;;;17.00;70.90;;;16.23;56.12;97308.81;5090316;28;20472;-72
2022/08/13 03:49:52;;;;;;;2.10;1.65;;;17.00;70.90;;;16.28;56.59;97321.28;5090273;28;21006;-72
2022/08/13 03:52:17;;;;;;;3.03;1.98;;;17.00;70.90;;;16.29;56.38;97312.19;5090103;28;20398;-72
2022/08/13 03:54:45;;;;;;;2.67;1.90;;;17.00;71.10;;;16.18;56.58;97310.72;5089629;28;20426;-72
2022/08/13 03:57:12;;;;;;;2.58;2.08;;;16.90;71.40;;;16.18;56.65;97302.72;5090994;28;20812;-72
2022/08/13 03:59:38;;;;;;;3.13;1.58;;;16.80;71.40;;;16.12;56.81;97302.00;5093814;28;20945;-72
2022/08/13 04:02:04;;;;;;;2.40;1.88;;;16.80;71.70;;;16.12;56.62;97301.22;5093997;28;20398;-72
2022/08/13 04:04:30;;;;;;;1.80;1.60;;;16.90;71.60;;;16.13;56.83;97297.47;5093471;28;20401;-72
2022/08/13 04:06:57;;;;;;;5.13;1.75;;;16.90;71.70;;;16.19;56.41;97301.66;5093716;28;20394;-73
2022/08/13 04:09:23;;;;;;;3.22;1.92;;;16.80;71.60;;;16.09;56.87;97301.78;5109442;28;20402;-72
2022/08/13 04:11:50;;;;;;;4.70;2.00;;;16.80;71.70;;;16.10;56.97;97306.84;5093795;28;20455;-72
2022/08/13 04:14:16;;;;;;;4.38;1.92;;;16.80;71.90;;;16.12;56.76;97301.22;5093079;28;20394;-72
2022/08/13 04:16:42;;;;;;;2.05;1.70;;;16.80;71.90;;;16.00;57.32;97306.19;5093725;28;20416;-72
2022/08/13 04:19:08;;;;;;;2.50;2.00;;;16.70;72.10;;;15.98;56.98;97306.47;5093756;28;20965;-72
2022/08/13 04:21:37;;;;;;;4.20;1.75;;;16.70;72.20;;;15.92;57.38;97304.16;5093723;28;20777;-73
2022/08/13 04:24:04;;;;;;;5.45;2.00;;;16.70;72.30;;;15.99;57.22;97304.59;5093006;28;20403;-72
2022/08/13 04:26:31;;;;;;;2.47;1.58;;;16.70;72.20;;;15.91;57.24;97298.03;5093515;28;20393;-72
2022/08/13 04:29:02;;;;;;;2.55;1.73;;;16.60;72.30;;;15.89;57.35;97300.19;5093282;28;20397;-72
2022/08/13 04:31:28;;;;;;;2.10;1.80;;;16.70;72.40;;;15.93;57.33;97289.75;5093481;28;20482;-72
2022/08/13 04:33:54;;;;;;;1.90;1.67;;;16.70;72.40;;;15.91;57.31;97302.56;5092874;28;20725;-72
2022/08/13 04:36:20;;;;;;;2.63;1.80;;;16.70;72.40;;;15.94;57.54;97302.78;5093199;28;20445;-72
2022/08/13 04:38:46;;;;;;;2.10;1.88;;;16.70;72.40;;;15.92;57.47;97299.63;5108804;28;20420;-72
2022/08/13 04:41:12;;;;;;;5.47;2.00;;;16.60;72.50;;;15.92;57.49;97312.16;5093276;28;20401;-73
2022/08/13 04:43:38;;;;;;;6.95;2.17;;;16.60;72.50;;;15.91;57.54;97299.91;5092583;28;20394;-72
2022/08/13 04:46:05;;;;;;;2.42;1.95;;;16.70;72.70;;;15.90;57.45;97307.09;5093085;28;20397;-72
2022/08/13 04:48:33;;;;;;;3.13;2.00;;;16.70;72.70;;;15.92;57.84;97309.50;5092928;28;20391;-72
2022/08/13 04:50:59;;;;;;;4.63;1.95;;;16.70;72.90;;;15.98;57.58;97311.81;5092936;28;20476;-72
2022/08/13 04:53:27;;;;;;;2.45;1.70;;;16.70;72.70;;;16.00;57.77;97317.66;5092499;28;20413;-72
2022/08/13 04:55:54;;;;;;;2.42;2.00;;;16.80;72.90;;;16.05;57.66;97319.47;5092810;28;20406;-72
2022/08/13 04:58:21;;;;;;;2.20;1.80;;;16.80;72.70;;;16.08;57.69;97317.03;5092637;28;20412;-72
2022/08/13 05:00:48;;;;;;;2.53;1.85;;;16.80;72.80;;;16.16;57.26;97318.25;5092920;28;20409;-72
2022/08/13 05:03:17;;;;;;;2.67;1.88;;;16.90;72.60;;;16.18;57.62;97316.06;5092598;28;20406;-73
2022/08/13 05:05:46;;;;;;;5.87;2.03;;;16.90;72.60;;;16.24;57.09;97313.03;5092693;28;20906;-72
2022/08/13 05:08:16;;;;;;;2.67;1.88;;;17.00;72.30;;;16.25;57.45;97316.50;5092466;28;20394;-72
2022/08/13 05:10:43;;;;;;;4.18;1.70;;;17.00;72.50;;;16.31;57.19;97320.72;5092150;28;20398;-72
2022/08/13 05:13:21;;;;;;;3.80;1.80;;;17.10;72.40;;;16.35;57.39;97321.72;5092171;28;20402;-72
2022/08/13 05:15:47;;;;;;;2.75;1.60;;;17.10;72.50;;;16.43;57.23;97320.28;5092501;28;20755;-72
2022/08/13 05:18:16;;;;;;;2.05;1.50;;;17.20;72.50;;;16.53;57.20;97320.91;5092337;28;20496;-72
2022/08/13 05:20:42;;;;;;;3.05;1.60;;;17.30;72.50;;;16.62;56.93;97315.72;5092440;28;20440;-72
2022/08/13 05:23:08;;;;;;;3.17;1.75;;;17.40;72.20;;;16.70;56.95;97322.28;5092036;28;20878;-72
2022/08/13 05:25:35;;;;;;;3.05;1.60;;;17.50;72.10;;;16.75;56.74;97320.34;5108034;28;20473;-73
2022/08/13 05:28:02;;;;;;;1.80;1.60;;;17.50;72.10;;;16.80;57.15;97322.13;5092184;28;20473;-71
2022/08/13 05:30:28;;;;;;;1.80;1.50;;;17.60;72.30;;;16.83;57.63;97321.56;5092336;28;20475;-72
2022/08/13 05:32:57;;;;;;;2.95;2.00;;;17.60;72.50;;;16.87;57.63;97322.53;5091750;28;20507;-72
2022/08/13 05:35:27;;;;;;;2.88;1.77;;;17.60;72.50;;;16.93;57.41;97330.19;5092083;28;20431;-72
2022/08/13 05:37:53;;;;;;;2.25;1.60;;;17.70;72.50;;;16.99;57.37;97321.00;5092063;28;20474;-72
2022/08/13 05:40:19;;;;;;;2.20;1.60;;;17.80;72.50;;;17.06;57.27;97331.31;5092107;28;20394;-72
2022/08/13 05:42:45;;;;;;;2.10;1.60;;;17.80;72.30;;;17.12;57.21;97335.50;5091572;28;20402;-71
2022/08/13 05:45:11;;;;;;;3.10;1.85;;;17.90;72.40;;;17.17;57.35;97326.56;5091973;28;20902;-72
2022/08/13 05:47:37;;;;;;;3.80;1.60;;;18.00;72.50;;;17.21;57.53;97333.75;5091861;28;20749;-72
2022/08/13 05:50:13;;;;;;;3.00;2.42;;;18.00;72.50;;;17.26;57.39;97340.88;5091935;28;20960;-73
2022/08/13 05:52:41;;;;;;;4.40;2.90;;;18.00;72.60;;;17.30;57.32;97339.19;5091657;28;20421;-73
2022/08/13 05:55:11;;;;;;;3.97;2.20;;;18.00;72.50;;;17.35;57.20;97329.19;5091595;28;20485;-73
2022/08/13 05:57:38;;;;;;;3.67;2.28;;;18.10;72.50;;;17.43;56.88;97325.03;5091582;28;20490;-73
2022/08/13 06:05:37;;;;;;;5.55;1.92;;;18.30;71.40;;;17.66;55.80;97318.75;5091423;28;20440;-73
2022/08/13 06:08:06;;;;;;;3.83;1.73;;;18.40;71.10;;;17.73;55.35;97316.47;5091491;28;20398;-72
2022/08/13 06:10:33;;;;;;;1.70;1.50;;;18.40;70.60;;;17.77;55.12;97316.63;5090194;28;20792;-73
2022/08/13 06:12:59;;;;;;;3.65;1.98;;;18.50;70.50;;;17.83;54.85;97312.75;5090859;28;20394;-73
2022/08/13 06:15:26;;;;;;;2.13;1.73;;;18.60;70.20;;;17.88;54.84;97314.56;5091303;28;20481;-73
2022/08/13 06:17:52;;;;;;;2.42;1.75;;;18.60;69.90;;;17.94;54.45;97327.53;5091060;28;20428;-73
2022/08/13 06:20:20;;;;;;;3.33;1.60;;;18.60;69.70;;;17.98;54.10;97325.03;5090500;28;20402;-74
2022/08/13 06:22:52;;;;;;;2.03;1.60;;;18.70;69.30;;;18.02;53.78;97318.00;5090414;28;20436;-76
2022/08/13 06:25:21;;;;;;;2.15;1.60;;;18.70;69.10;;;18.05;53.81;97323.53;5091186;28;20943;-76
2022/08/13 06:27:47;;;;;;;3.05;1.52;;;18.70;68.90;;;18.11;53.45;97324.25;5091132;28;20448;-76
2022/08/13 06:30:18;;;;;;;2.20;1.57;;;18.80;68.70;;;18.15;53.62;97326.00;5091173;28;21004;-76
2022/08/13 06:32:44;;;;;;;3.20;1.30;;;18.80;68.60;;;18.19;53.13;97332.34;5090943;28;20393;-76
2022/08/13 06:35:10;;;;;;;3.47;1.65;;;18.90;68.40;;;18.22;52.90;97325.59;5090931;28;20405;-75
2022/08/13 06:37:41;;;;;;;2.75;1.58;;;18.90;68.00;;;18.26;52.94;97341.88;5090983;28;20412;-76
2022/08/13 06:40:11;;;;;;;10.07;2.33;;;18.90;68.00;;;18.29;52.76;97327.88;5090957;28;20417;-75
2022/08/13 06:42:40;;;;;;;5.47;1.70;;;18.90;68.00;;;18.33;52.76;97331.53;5090755;28;20394;-76
2022/08/13 06:45:08;;;;;;;3.50;1.85;;;19.00;67.90;;;18.36;52.76;97338.97;5090621;28;20398;-76
2022/08/13 06:47:34;;;;;;;4.22;1.73;;;19.00;67.70;;;18.40;52.48;97337.28;5090671;28;20414;-76
2022/08/13 06:50:02;;;;;;;8.82;2.22;;;19.10;67.60;;;18.42;52.59;97348.47;5090887;28;20405;-75
2022/08/13 06:52:28;;;;;;;8.52;2.20;;;19.10;67.50;;;18.47;52.70;97345.69;5090834;28;20406;-76
2022/08/13 06:54:58;;;;;;;4.75;2.00;;;19.10;67.80;;;18.50;53.14;97353.91;5089996;28;20405;-75
2022/08/13 06:57:24;;;;;;;4.22;1.85;;;19.20;68.20;;;18.52;53.05;97343.69;5090512;28;20771;-76
2022/08/13 06:59:56;;;;;;;3.80;1.98;;;19.20;68.20;;;18.57;53.16;97344.72;5090547;28;20417;-76
2022/08/13 07:02:24;;;;;;;2.85;1.77;;;19.20;68.00;;;18.59;53.21;97337.94;5090630;28;20405;-76
2022/08/13 07:04:51;;;;;;;4.80;2.07;;;19.30;68.40;;;18.62;53.26;97348.06;5090136;28;20401;-75
2022/08/13 07:07:18;;;;;;;5.70;1.80;;;19.30;68.30;;;18.67;53.46;97345.25;5090383;28;20417;-76
2022/08/13 07:09:45;;;;;;;4.22;1.92;;;19.30;68.50;;;18.70;53.71;97358.06;5089279;28;20451;-75
2022/08/13 07:12:12;;;;;;;4.68;1.73;;;19.40;68.70;;;18.73;53.49;97352.06;5090272;28;20394;-75
2022/08/13 07:14:43;;;;;;;5.73;2.30;;;19.40;68.70;;;18.75;52.52;97355.25;5089827;28;20484;-75
2022/08/13 07:17:11;;;;;;;5.45;1.90;;;19.40;68.00;;;18.79;52.45;97353.56;5090230;28;20453;-82
2022/08/13 07:19:38;;;;;;;3.93;2.10;;;19.40;67.60;;;18.83;52.93;97351.03;5090268;28;20417;-76
2022/08/13 07:22:05;;;;;;;4.38;1.83;;;19.50;68.00;;;18.88;53.16;97353.59;5088381;28;20415;-75
2022/08/13 07:24:32;;;;;;;3.25;1.83;;;19.50;68.10;;;18.92;52.99;97357.28;5091189;28;20518;-75
2022/08/13 07:27:03;;;;;;;2.90;2.05;;;19.60;68.20;;;18.98;53.13;97357.94;5094660;28;20432;-75
2022/08/13 07:29:31;;;;;;;3.70;1.80;;;19.60;68.10;;;19.03;52.77;97352.44;5102214;28;20397;-74
2022/08/13 07:32:02;;;;;;;2.47;1.90;;;19.70;67.80;;;19.09;52.60;97356.59;5110987;28;20804;-73
2022/08/13 07:34:31;;;;;;;6.97;1.60;;;19.70;67.70;;;19.13;52.76;97355.66;5112870;28;20403;-73
2022/08/13 07:36:59;;;;;;;3.35;1.80;;;19.80;67.70;;;19.20;52.35;97358.72;5112757;27;20392;-72
2022/08/13 07:39:25;;;;;;;5.40;2.00;;;19.90;67.40;;;19.26;52.47;97359.38;5113142;28;20414;-73
2022/08/13 07:41:54;;;;;;;2.45;2.00;;;19.90;67.60;;;19.30;52.31;97358.47;5113451;28;20407;-73
2022/08/13 07:44:23;;;;;;;2.78;1.80;;;19.90;67.20;;;19.36;52.16;97355.63;5112708;28;20487;-70
2022/08/13 07:46:50;;;;;;;2.45;1.70;;;20.00;67.10;;;19.43;51.77;97358.66;5113148;28;20396;-71
2022/08/13 07:49:18;;;;;;;4.90;1.90;;;20.00;66.70;;;19.47;51.56;97349.72;5113083;28;20399;-73
2022/08/13 07:51:47;;;;;;;1.95;1.60;;;20.10;66.40;;;19.55;51.29;97356.22;5114323;28;20852;-72
2022/08/13 07:54:13;;;;;;;3.90;1.77;;;20.20;66.30;;;19.60;50.86;97356.91;5113955;28;20396;-72
2022/08/13 07:56:39;;;;;;;1.85;1.58;;;20.20;65.90;;;19.67;50.48;97346.50;5114341;28;20400;-72
2022/08/13 07:59:08;;;;;;;3.78;1.67;;;20.30;65.30;;;19.74;49.25;97345.25;5114297;28;20416;-72
2022/08/13 08:01:45;;;;;;;4.75;1.63;;;20.40;64.20;;;19.77;48.91;97341.97;5114269;28;20453;-72
2022/08/13 08:04:13;;;;;;;2.67;1.75;;;20.40;63.70;;;19.82;48.83;97344.50;5114029;28;20401;-72
2022/08/13 08:06:40;;;;;;;2.92;1.50;;;20.40;63.50;;;19.89;48.88;97345.63;5114172;27;20799;-72
2022/08/13 08:09:10;;;;;;;2.90;1.77;;;20.50;63.50;;;19.98;48.91;97345.66;5114221;28;20437;-72
2022/08/13 08:14:27;;;;;;;3.28;1.80;;;20.70;63.80;;;20.18;48.76;97345.06;5113616;28;20407;-72
2022/08/13 08:16:53;;;;;;;1.92;1.50;;;20.80;63.30;;;20.30;48.65;97349.81;5113926;27;20396;-72
2022/08/13 08:19:20;;;;;;;2.05;1.60;;;20.90;63.20;;;20.41;48.69;97343.84;5113817;28;20454;-72
2022/08/13 08:21:47;;;;;;;2.38;1.50;;;21.00;63.20;;;20.55;48.33;97351.75;5114045;28;20407;-71
2022/08/13 08:24:16;;;;;;;3.10;1.70;;;21.10;62.80;;;20.68;47.90;97356.19;5112140;28;20414;-72
2022/08/13 08:26:46;;;;;;;2.85;1.75;;;21.30;62.40;;;20.78;45.99;97353.19;5113838;28;20411;-72
2022/08/13 08:29:13;;;;;;;4.13;1.70;;;21.40;60.00;;;20.86;45.45;97352.41;5113804;28;20424;-72
2022/08/13 08:31:40;;;;;;;4.93;1.67;;;21.40;60.20;;;21.00;45.73;97359.50;5113537;28;20392;-72
2022/08/13 08:34:07;;;;;;;4.95;1.80;;;21.60;59.80;;;21.07;45.72;97365.97;5113172;28;20400;-72
2022/08/13 08:36:37;;;;;;;2.25;1.80;;;21.60;59.80;;;21.08;45.36;97356.78;5113578;28;20893;-73
2022/08/13 08:44:39;;;;;;;2.63;1.70;;;21.80;59.30;;;21.21;45.45;97358.53;5111845;28;20396;-73
2022/08/13 08:47:07;;;;;;;3.33;1.38;;;21.80;59.60;;;21.32;45.68;97355.50;5113364;28;20762;-72
2022/08/13 08:49:33;;;;;;;3.08;1.50;;;21.90;59.60;;;21.42;45.10;97353.28;5113642;28;21090;-73
2022/08/13 08:52:02;;;;;;;1.90;1.40;;;22.00;59.30;;;21.49;45.12;97358.97;5113415;28;20436;-72
2022/08/13 08:54:29;;;;;;;6.65;1.58;;;22.10;59.20;;;21.54;44.98;97358.78;5112454;28;20876;-73
2022/08/13 08:56:58;;;;;;;2.45;1.50;;;22.10;59.00;;;21.58;44.75;97350.81;5113249;28;20389;-72
2022/08/13 08:59:27;;;;;;;2.57;1.80;;;22.20;58.80;;;21.62;44.64;97359.84;5113095;28;20412;-72
2022/08/13 09:01:55;;;;;;;4.40;1.52;;;22.20;58.70;;;21.62;44.67;97362.56;5113328;28;20742;-72
2022/08/13 09:04:25;;;;;;;3.10;1.50;;;22.20;58.80;;;21.62;45.03;97362.56;5112698;28;20388;-73
2022/08/13 09:06:53;;;;;;;3.80;1.90;;;22.20;59.00;;;21.60;44.72;97362.06;5113095;28;20877;-73
2022/08/13 09:09:20;;;;;;;2.58;1.67;;;22.20;58.70;;;21.59;44.82;97352.41;5113021;28;20393;-72
2022/08/13 09:11:47;;;;;;;2.65;1.65;;;22.20;58.90;;;21.55;45.17;97348.78;5113164;28;20427;-73
2022/08/13 09:14:15;;;;;;;2.88;1.40;;;22.10;59.00;;;21.55;44.89;97354.19;5112558;28;20392;-72
2022/08/13 09:16:42;;;;;;;3.80;1.90;;;22.10;59.10;;;21.59;45.15;97349.72;5112857;28;20441;-72
2022/08/13 09:19:12;;;;;;;2.15;1.92;;;22.20;59.20;;;21.70;45.25;97340.19;5112832;28;20401;-72
2022/08/13 09:21:43;;;;;;;4.50;1.73;;;22.20;59.30;;;21.92;45.09;97345.28;5112824;28;20392;-73
2022/08/13 09:24:15;;;;;;;2.60;1.60;;;22.40;59.20;;;22.18;44.73;97341.69;5112207;28;20380;-72
2022/08/13 09:26:45;;;;;;;2.00;1.63;;;22.70;59.00;;;22.42;44.18;97332.94;5112815;28;20594;-72
2022/08/13 09:29:14;;;;;;;3.58;1.67;;;22.90;58.40;;;22.63;43.33;97334.53;5112875;28;20543;-73
2022/08/13 09:31:44;;;;;;;3.00;1.50;;;23.10;57.60;;;22.75;42.80;97329.22;5112515;28;20799;-72
2022/08/13 09:34:10;;;;;;;1.67;1.40;;;23.30;57.00;;;22.84;42.75;97326.47;5111773;28;20918;-73
2022/08/13 09:36:37;;;;;;;3.78;1.70;;;23.40;56.90;;;22.88;42.61;97335.47;5112256;28;20392;-73
2022/08/13 09:39:04;;;;;;;4.13;1.60;;;23.40;56.70;;;22.97;42.29;97329.97;5112475;28;20819;-73
2022/08/13 09:41:38;;;;;;;3.10;1.80;;;23.50;56.50;;;22.99;41.13;97317.75;5112473;28;20396;-73
2022/08/13 09:44:04;;;;;;;2.40;1.50;;;23.50;55.00;;;23.09;40.95;97325.41;5111947;28;20447;-72
2022/08/13 09:46:34;;;;;;;2.13;1.48;;;23.60;55.10;;;23.17;40.91;97327.22;5112473;28;20730;-73
2022/08/13 09:49:03;;;;;;;2.53;1.38;;;23.60;55.00;;;23.35;40.55;97330.53;5112350;28;20393;-73
2022/08/13 09:51:32;;;;;;;3.63;1.67;;;23.80;54.70;;;23.44;39.62;97322.34;5112280;28;20392;-73
2022/08/13 09:53:58;;;;;;;2.80;1.40;;;23.90;53.70;;;23.70;39.43;97320.13;5110348;28;20901;-72
2022/08/13 09:56:24;;;;;;;1.48;1.38;;;24.20;53.50;;;24.04;38.64;97321.59;5111860;28;20785;-72
2022/08/13 09:58:50;;;;;;;2.05;1.40;;;24.50;52.70;;;24.51;37.75;97318.38;5111960;28;20464;-72
2022/08/13 10:01:18;;;;;;;2.90;1.40;;;25.10;51.80;;;25.01;36.57;97326.00;5111200;28;22424;-73
2022/08/13 10:03:48;;;;;;;2.50;1.50;;;25.60;50.40;;;25.44;35.37;97325.97;5111473;28;20457;-73
2022/08/13 10:06:18;;;;;;;2.15;1.35;;;26.10;49.10;;;25.75;34.54;97316.28;5111957;28;20445;-73
2022/08/13 10:08:46;;;;;;;5.05;1.60;;;26.50;48.10;;;25.90;33.83;97315.47;5111919;27;20411;-73
2022/08/13 10:11:12;;;;;;;2.40;1.40;;;26.70;47.00;;;25.96;33.22;97319.50;5111866;28;20757;-73
2022/08/13 10:13:38;;;;;;;1.88;1.30;;;26.70;46.70;;;25.94;32.61;97321.00;5111257;28;20400;-72
2022/08/13 10:16:05;;;;;;;2.30;1.50;;;26.60;45.80;;;25.82;32.66;97324.59;5111946;28;20798;-73
2022/08/13 10:18:31;;;;;;;3.25;1.90;;;26.50;45.70;;;25.72;32.48;97317.75;5111443;28;20408;-73
2022/08/13 10:20:59;;;;;;;2.83;1.63;;;26.30;45.40;;;25.60;32.72;97325.22;5111672;28;20407;-73
2022/08/13 10:23:25;;;;;;;2.00;1.58;;;26.10;46.10;;;25.55;33.93;97315.41;5111359;28;20397;-73
2022/08/13 10:25:52;;;;;;;2.38;1.65;;;26.10;47.10;;;25.38;33.76;97329.28;5111615;28;20389;-73
2022/08/13 10:28:23;;;;;;;3.80;1.63;;;25.90;47.20;;;25.22;34.40;97320.34;5110254;28;20842;-73
2022/08/13 10:30:49;;;;;;;3.10;1.40;;;25.80;47.60;;;25.04;34.16;97323.38;5111504;28;20399;-73
2022/08/13 10:33:17;;;;;;;4.43;1.40;;;25.60;47.50;;;24.86;34.46;97316.66;5109715;28;20789;-73
2022/08/13 10:35:44;;;;;;;4.38;1.50;;;25.40;47.70;;;24.85;34.32;97303.47;5111261;28;20399;-73
2022/08/13 10:38:16;;;;;;;4.47;1.67;;;25.30;47.90;;;24.83;32.85;97306.50;5111496;28;20483;-73
2022/08/13 10:40:43;;;;;;;3.70;1.50;;;25.30;46.80;;;24.94;33.60;97298.72;5111384;28;20487;-72
2022/08/13 10:43:10;;;;;;;2.17;1.60;;;25.40;47.10;;;24.97;33.92;97301.50;5110983;28;20404;-72
2022/08/13 10:45:37;;;;;;;2.35;1.40;;;25.50;47.30;;;24.91;32.73;97302.09;5111298;28;20848;-73
2022/08/13 10:48:11;;;;;;;3.78;1.50;;;25.40;46.00;;;24.66;32.98;97302.16;5111092;28;20396;-72